sensor_id;sensor_type;location;lat;lon;timestamp;pressure;altitude;pressure_sealevel;temperature;humidity
3260;BME280;22469;48.150;14.004;2022-09-09T00:00:47;97898.66;;;17.10;72.82
3260;BME280;22469;48.150;14.004;2022-09-09T00:15:11;97908.34;;;16.77;73.14
3260;BME280;22469;48.150;14.004;2022-09-09T00:18:07;97906.38;;;16.81;72.96
3260;BME280;22469;48.150;14.004;2022-09-09T00:21:07;97908.44;;;16.76;72.89
3260;BME280;22469;48.150;14.004;2022-09-09T00:23:39;97907.28;;;16.66;73.12
3260;BME280;22469;48.150;14.004;2022-09-09T00:29:27;97900.69;;;16.60;73.23
3260;BME280;22469;48.150;14.004;2022-09-09T00:32:17;97890.50;;;16.57;73.32
3260;BME280;22469;48.150;14.004;2022-09-09T00:34:58;97904.22;;;16.59;73.35
3260;BME280;22469;48.150;14.004;2022-09-09T00:37:30;97901.63;;;16.59;73.66
3260;BME280;22469;48.150;14.004;2022-09-09T00:40:02;97903.19;;;16.62;73.78
3260;BME280;22469;48.150;14.004;2022-09-09T00:50:45;97904.09;;;16.61;73.62
3260;BME280;22469;48.150;14.004;2022-09-09T00:56:20;97892.91;;;16.60;73.19
3260;BME280;22469;48.150;14.004;2022-09-09T00:59:07;97894.56;;;16.61;73.33
3260;BME280;22469;48.150;14.004;2022-09-09T01:01:41;97890.25;;;16.62;73.31
3260;BME280;22469;48.150;14.004;2022-09-09T01:04:13;97888.50;;;16.62;72.97
3260;BME280;22469;48.150;14.004;2022-09-09T01:06:45;97891.81;;;16.64;73.23
3260;BME280;22469;48.150;14.004;2022-09-09T01:09:33;97898.69;;;16.65;73.13
3260;BME280;22469;48.150;14.004;2022-09-09T01:12:16;97904.03;;;16.62;73.22
3260;BME280;22469;48.150;14.004;2022-09-09T01:14:52;97896.25;;;16.62;72.77
3260;BME280;22469;48.150;14.004;2022-09-09T01:17:32;97899.56;;;16.64;73.19
3260;BME280;22469;48.150;14.004;2022-09-09T01:20:17;97914.09;;;16.52;73.08
3260;BME280;22469;48.150;14.004;2022-09-09T01:22:52;97913.09;;;16.55;73.34
3260;BME280;22469;48.150;14.004;2022-09-09T01:26:02;97911.22;;;16.57;73.65
3260;BME280;22469;48.150;14.004;2022-09-09T01:28:31;97907.69;;;16.58;73.54
3260;BME280;22469;48.150;14.004;2022-09-09T01:31:03;97900.78;;;16.58;73.76
3260;BME280;22469;48.150;14.004;2022-09-09T01:33:32;97889.66;;;16.56;73.60
3260;BME280;22469;48.150;14.004;2022-09-09T01:39:13;97895.50;;;16.60;73.37
3260;BME280;22469;48.150;14.004;2022-09-09T01:41:40;97906.78;;;16.59;73.56
3260;BME280;22469;48.150;14.004;2022-09-09T01:44:08;97907.81;;;16.56;73.57
3260;BME280;22469;48.150;14.004;2022-09-09T01:46:35;97917.41;;;16.54;73.60
3260;BME280;22469;48.150;14.004;2022-09-09T01:49:04;97920.19;;;16.51;73.13
3260;BME280;22469;48.150;14.004;2022-09-09T01:51:35;97919.72;;;16.45;73.43
3260;BME280;22469;48.150;14.004;2022-09-09T01:54:03;97916.94;;;16.48;73.44
3260;BME280;22469;48.150;14.004;2022-09-09T01:59:24;97910.84;;;16.49;73.50
3260;BME280;22469;48.150;14.004;2022-09-09T02:05:36;97906.22;;;16.54;73.67
3260;BME280;22469;48.150;14.004;2022-09-09T02:08:09;97902.72;;;16.55;73.76
3260;BME280;22469;48.150;14.004;2022-09-09T02:10:50;97905.09;;;16.58;73.47
3260;BME280;22469;48.150;14.004;2022-09-09T02:13:22;97892.38;;;16.55;72.79
3260;BME280;22469;48.150;14.004;2022-09-09T02:15:56;97898.28;;;16.57;73.45
3260;BME280;22469;48.150;14.004;2022-09-09T02:18:28;97897.34;;;16.58;73.50
3260;BME280;22469;48.150;14.004;2022-09-09T02:20:59;97904.09;;;16.61;73.49
3260;BME280;22469;48.150;14.004;2022-09-09T02:23:27;97896.44;;;16.59;73.26
3260;BME280;22469;48.150;14.004;2022-09-09T02:25:57;97893.19;;;16.55;73.20
3260;BME280;22469;48.150;14.004;2022-09-09T02:28:26;97899.38;;;16.53;73.04
3260;BME280;22469;48.150;14.004;2022-09-09T02:30:55;97894.31;;;16.51;73.11
3260;BME280;22469;48.150;14.004;2022-09-09T02:33:27;97896.03;;;16.51;72.96
3260;BME280;22469;48.150;14.004;2022-09-09T02:35:58;97895.31;;;16.49;73.05
3260;BME280;22469;48.150;14.004;2022-09-09T02:38:34;97892.53;;;16.52;73.15
3260;BME280;22469;48.150;14.004;2022-09-09T02:41:06;97902.13;;;16.50;72.92
3260;BME280;22469;48.150;14.004;2022-09-09T02:43:34;97902.91;;;16.52;72.49
3260;BME280;22469;48.150;14.004;2022-09-09T02:49:51;97897.63;;;16.53;73.86
3260;BME280;22469;48.150;14.004;2022-09-09T02:52:01;97905.56;;;16.50;73.45
3260;BME280;22469;48.150;14.004;2022-09-09T02:54:34;97906.22;;;16.54;73.38
3260;BME280;22469;48.150;14.004;2022-09-09T02:59:33;97901.63;;;16.59;74.32
3260;BME280;22469;48.150;14.004;2022-09-09T03:02:00;97905.03;;;16.59;74.76
3260;BME280;22469;48.150;14.004;2022-09-09T03:04:28;97906.22;;;16.54;75.36
3260;BME280;22469;48.150;14.004;2022-09-09T03:06:58;97908.72;;;16.55;75.64
3260;BME280;22469;48.150;14.004;2022-09-09T03:09:25;97910.72;;;16.50;75.75
3260;BME280;22469;48.150;14.004;2022-09-09T03:11:52;97916.94;;;16.48;76.27
3260;BME280;22469;48.150;14.004;2022-09-09T03:14:22;97919.72;;;16.45;76.41
3260;BME280;22469;48.150;14.004;2022-09-09T03:16:52;97910.00;;;16.48;76.51
3260;BME280;22469;48.150;14.004;2022-09-09T03:19:20;97914.25;;;16.49;76.38
3260;BME280;22469;48.150;14.004;2022-09-09T03:21:47;97911.94;;;16.45;76.49
3260;BME280;22469;48.150;14.004;2022-09-09T03:24:14;97904.66;;;16.51;76.43
3260;BME280;22469;48.150;14.004;2022-09-09T03:26:42;97902.78;;;16.53;76.22
3260;BME280;22469;48.150;14.004;2022-09-09T03:29:12;97911.16;;;16.58;76.19
3260;BME280;22469;48.150;14.004;2022-09-09T03:31:39;97910.22;;;16.59;76.60
3260;BME280;22469;48.150;14.004;2022-09-09T03:34:07;97906.13;;;16.55;76.77
3260;BME280;22469;48.150;14.004;2022-09-09T03:36:34;97902.44;;;16.59;76.30
3260;BME280;22469;48.150;14.004;2022-09-09T03:39:01;97905.59;;;16.65;76.37
3260;BME280;22469;48.150;14.004;2022-09-09T03:41:30;97908.75;;;16.70;76.48
3260;BME280;22469;48.150;14.004;2022-09-09T03:43:57;97902.66;;;16.71;75.99
3260;BME280;22469;48.150;14.004;2022-09-09T03:46:25;97892.97;;;16.74;75.72
3260;BME280;22469;48.150;14.004;2022-09-09T03:48:52;97895.63;;;16.73;76.34
3260;BME280;22469;48.150;14.004;2022-09-09T03:51:19;97899.22;;;16.70;75.77
3260;BME280;22469;48.150;14.004;2022-09-09T03:53:47;97898.69;;;16.65;75.64
3260;BME280;22469;48.150;14.004;2022-09-09T03:56:15;97901.50;;;16.61;75.76
3260;BME280;22469;48.150;14.004;2022-09-09T03:58:42;97904.22;;;16.59;76.25
3260;BME280;22469;48.150;14.004;2022-09-09T04:01:11;97906.69;;;16.61;76.44
3260;BME280;22469;48.150;14.004;2022-09-09T04:03:40;97908.56;;;16.58;76.36
3260;BME280;22469;48.150;14.004;2022-09-09T04:06:09;97905.09;;;16.58;76.58
3260;BME280;22469;48.150;14.004;2022-09-09T04:08:38;97899.28;;;16.54;76.22
3260;BME280;22469;48.150;14.004;2022-09-09T04:11:07;97901.97;;;16.53;76.12
3260;BME280;22469;48.150;14.004;2022-09-09T04:13:35;97900.47;;;16.49;76.33
3260;BME280;22469;48.150;14.004;2022-09-09T04:16:07;97906.84;;;16.43;76.23
3260;BME280;22469;48.150;14.004;2022-09-09T04:18:37;97905.44;;;16.38;76.83
3260;BME280;22469;48.150;14.004;2022-09-09T04:21:04;97906.44;;;16.35;77.43
3260;BME280;22469;48.150;14.004;2022-09-09T04:23:33;97893.56;;;16.33;76.77
3260;BME280;22469;48.150;14.004;2022-09-09T04:26:03;97893.22;;;16.40;77.03
3260;BME280;22469;48.150;14.004;2022-09-09T04:28:33;97892.22;;;16.42;77.02
3260;BME280;22469;48.150;14.004;2022-09-09T04:31:16;97894.66;;;16.45;76.93
3260;BME280;22469;48.150;14.004;2022-09-09T04:33:45;97896.22;;;16.48;76.94
3260;BME280;22469;48.150;14.004;2022-09-09T04:36:13;97891.59;;;16.53;77.42
3260;BME280;22469;48.150;14.004;2022-09-09T04:38:40;97902.63;;;16.56;77.18
3260;BME280;22469;48.150;14.004;2022-09-09T04:41:08;97895.59;;;16.58;77.34
3260;BME280;22469;48.150;14.004;2022-09-09T04:43:38;97898.09;;;16.60;77.11
3260;BME280;22469;48.150;14.004;2022-09-09T04:46:06;97892.75;;;16.63;76.66
3260;BME280;22469;48.150;14.004;2022-09-09T04:48:33;97898.09;;;16.60;76.85
3260;BME280;22469;48.150;14.004;2022-09-09T04:51:03;97897.91;;;16.63;77.26
3260;BME280;22469;48.150;14.004;2022-09-09T04:53:32;97895.97;;;16.67;77.11
3260;BME280;22469;48.150;14.004;2022-09-09T04:56:05;97902.66;;;16.71;77.35
3260;BME280;22469;48.150;14.004;2022-09-09T04:58:38;97909.59;;;16.70;76.97
3260;BME280;22469;48.150;14.004;2022-09-09T05:01:12;97921.38;;;16.76;77.28
3260;BME280;22469;48.150;14.004;2022-09-09T05:03:41;97925.78;;;16.74;76.54
3260;BME280;22469;48.150;14.004;2022-09-09T05:06:13;97925.13;;;16.70;77.22
3260;BME280;22469;48.150;14.004;2022-09-09T05:08:43;97920.13;;;16.67;77.00
3260;BME280;22469;48.150;14.004;2022-09-09T05:13:47;97916.22;;;16.60;77.15
3260;BME280;22469;48.150;14.004;2022-09-09T05:16:14;97918.53;;;16.65;76.86
3260;BME280;22469;48.150;14.004;2022-09-09T05:18:42;97928.53;;;16.71;77.14
3260;BME280;22469;48.150;14.004;2022-09-09T05:21:14;97925.13;;;16.70;77.30
3260;BME280;22469;48.150;14.004;2022-09-09T05:23:42;97922.53;;;16.70;77.08
3260;BME280;22469;48.150;14.004;2022-09-09T05:26:13;97931.66;;;16.77;77.35
3260;BME280;22469;48.150;14.004;2022-09-09T05:28:44;97928.97;;;16.79;77.06
3260;BME280;22469;48.150;14.004;2022-09-09T05:31:13;97921.94;;;16.81;76.96
3260;BME280;22469;48.150;14.004;2022-09-09T05:33:43;97912.41;;;16.81;77.01
3260;BME280;22469;48.150;14.004;2022-09-09T05:36:14;97904.38;;;16.86;77.09
3260;BME280;22469;48.150;14.004;2022-09-09T05:38:43;97907.50;;;16.91;77.12
3260;BME280;22469;48.150;14.004;2022-09-09T05:41:12;97901.16;;;16.97;77.06
3260;BME280;22469;48.150;14.004;2022-09-09T05:43:43;97889.56;;;17.02;76.96
3260;BME280;22469;48.150;14.004;2022-09-09T05:48:44;97886.06;;;17.18;77.85
3260;BME280;22469;48.150;14.004;2022-09-09T05:51:15;97887.28;;;17.26;77.71
3260;BME280;22469;48.150;14.004;2022-09-09T05:53:48;97874.75;;;17.33;77.79
3260;BME280;22469;48.150;14.004;2022-09-09T05:56:21;97882.72;;;17.44;77.61
3260;BME280;22469;48.150;14.004;2022-09-09T05:58:52;97885.66;;;17.52;78.11
3260;BME280;22469;48.150;14.004;2022-09-09T06:01:32;97886.38;;;17.69;78.33
3260;BME280;22469;48.150;14.004;2022-09-09T06:04:01;97886.72;;;17.77;77.77
3260;BME280;22469;48.150;14.004;2022-09-09T06:06:34;97878.69;;;17.82;76.99
3260;BME280;22469;48.150;14.004;2022-09-09T06:09:05;97877.75;;;17.83;77.38
3260;BME280;22469;48.150;14.004;2022-09-09T06:11:38;97886.06;;;17.88;77.61
3260;BME280;22469;48.150;14.004;2022-09-09T06:14:06;97890.84;;;17.94;77.34
3260;BME280;22469;48.150;14.004;2022-09-09T06:16:35;97894.63;;;18.03;77.13
3260;BME280;22469;48.150;14.004;2022-09-09T06:19:04;97889.34;;;18.04;75.87
3260;BME280;22469;48.150;14.004;2022-09-09T06:21:35;97886.53;;;18.07;75.94
3260;BME280;22469;48.150;14.004;2022-09-09T06:24:04;97887.81;;;18.14;75.54
3260;BME280;22469;48.150;14.004;2022-09-09T06:26:34;97885.84;;;18.18;76.00
3260;BME280;22469;48.150;14.004;2022-09-09T06:29:03;97891.47;;;18.24;75.83
3260;BME280;22469;48.150;14.004;2022-09-09T06:31:32;97894.28;;;18.21;76.13
3260;BME280;22469;48.150;14.004;2022-09-09T06:34:01;97894.72;;;18.28;75.26
3260;BME280;22469;48.150;14.004;2022-09-09T06:36:32;97901.78;;;18.26;74.57
3260;BME280;22469;48.150;14.004;2022-09-09T06:39:01;97905.72;;;18.32;75.07
3260;BME280;22469;48.150;14.004;2022-09-09T06:41:30;97909.78;;;18.36;74.46
3260;BME280;22469;48.150;14.004;2022-09-09T06:43:59;97913.03;;;18.39;75.49
3260;BME280;22469;48.150;14.004;2022-09-09T06:46:29;97912.53;;;18.47;74.65
3260;BME280;22469;48.150;14.004;2022-09-09T06:48:59;97904.84;;;18.58;75.17
3260;BME280;22469;48.150;14.004;2022-09-09T06:51:31;97903.44;;;18.67;73.46
3260;BME280;22469;48.150;14.004;2022-09-09T06:54:01;97905.81;;;18.70;72.80
3260;BME280;22469;48.150;14.004;2022-09-09T06:59:01;97915.63;;;18.92;72.56
3260;BME280;22469;48.150;14.004;2022-09-09T07:01:33;97920.94;;;19.03;73.17
3260;BME280;22469;48.150;14.004;2022-09-09T07:04:03;97908.97;;;19.13;72.60
3260;BME280;22469;48.150;14.004;2022-09-09T07:06:39;97897.41;;;19.17;72.08
3260;BME280;22469;48.150;14.004;2022-09-09T07:09:09;97901.78;;;19.17;70.93
3260;BME280;22469;48.150;14.004;2022-09-09T07:11:43;97893.16;;;19.16;70.65
3260;BME280;22469;48.150;14.004;2022-09-09T07:14:15;97901.78;;;19.17;70.17
3260;BME280;22469;48.150;14.004;2022-09-09T07:16:44;97898.47;;;19.15;69.41
3260;BME280;22469;48.150;14.004;2022-09-09T07:19:12;97888.25;;;19.25;69.62
3260;BME280;22469;48.150;14.004;2022-09-09T07:21:41;97889.72;;;19.29;69.37
3260;BME280;22469;48.150;14.004;2022-09-09T07:24:09;97895.63;;;19.31;70.28
3260;BME280;22469;48.150;14.004;2022-09-09T07:26:38;97887.81;;;19.31;69.89
3260;BME280;22469;48.150;14.004;2022-09-09T07:29:07;97890.84;;;19.37;71.49
3260;BME280;22469;48.150;14.004;2022-09-09T07:31:37;97883.84;;;19.38;70.59
3260;BME280;22469;48.150;14.004;2022-09-09T07:34:07;97891.66;;;19.38;70.14
3260;BME280;22469;48.150;14.004;2022-09-09T07:36:39;97894.81;;;19.30;70.20
3260;BME280;22469;48.150;14.004;2022-09-09T07:39:11;97901.03;;;19.28;70.96
3260;BME280;22469;48.150;14.004;2022-09-09T07:41:42;97904.25;;;19.31;70.79
3260;BME280;22469;48.150;14.004;2022-09-09T07:44:13;97902.41;;;19.33;71.05
3260;BME280;22469;48.150;14.004;2022-09-09T07:46:43;97913.53;;;19.35;71.21
3260;BME280;22469;48.150;14.004;2022-09-09T07:49:12;97916.03;;;19.37;69.39
3260;BME280;22469;48.150;14.004;2022-09-09T07:51:42;97915.19;;;19.36;69.24
3260;BME280;22469;48.150;14.004;2022-09-09T07:54:13;97926.63;;;19.34;69.77
3260;BME280;22469;48.150;14.004;2022-09-09T07:56:42;97934.34;;;19.35;69.74
3260;BME280;22469;48.150;14.004;2022-09-09T07:59:09;97925.81;;;19.33;69.98
3260;BME280;22469;48.150;14.004;2022-09-09T08:01:42;97937.78;;;19.36;69.98
3260;BME280;22469;48.150;14.004;2022-09-09T08:04:17;97940.16;;;19.39;70.17
3260;BME280;22469;48.150;14.004;2022-09-09T08:06:50;97938.47;;;19.38;69.60
3260;BME280;22469;48.150;14.004;2022-09-09T08:09:21;97946.28;;;19.38;70.12
3260;BME280;22469;48.150;14.004;2022-09-09T08:11:51;97954.72;;;19.41;70.50
3260;BME280;22469;48.150;14.004;2022-09-09T08:14:19;97952.53;;;19.48;70.79
3260;BME280;22469;48.150;14.004;2022-09-09T08:16:47;97944.84;;;19.47;71.22
3260;BME280;22469;48.150;14.004;2022-09-09T08:19:16;97954.00;;;19.52;71.29
3260;BME280;22469;48.150;14.004;2022-09-09T08:21:44;97955.53;;;19.55;71.29
3260;BME280;22469;48.150;14.004;2022-09-09T08:24:12;97946.06;;;19.54;71.06
3260;BME280;22469;48.150;14.004;2022-09-09T08:26:45;97945.13;;;19.55;71.15
3260;BME280;22469;48.150;14.004;2022-09-09T08:29:15;97932.22;;;19.53;70.66
3260;BME280;22469;48.150;14.004;2022-09-09T08:31:54;97945.13;;;19.55;70.89
3260;BME280;22469;48.150;14.004;2022-09-09T08:34:25;97940.75;;;19.55;71.52
3260;BME280;22469;48.150;14.004;2022-09-09T08:36:53;97939.81;;;19.56;71.26
3260;BME280;22469;48.150;14.004;2022-09-09T08:39:21;97971.59;;;19.49;72.75
3260;BME280;22469;48.150;14.004;2022-09-09T08:48:15;97965.66;;;19.47;73.46
3260;BME280;22469;48.150;14.004;2022-09-09T08:50:51;97942.22;;;19.47;73.00
3260;BME280;22469;48.150;14.004;2022-09-09T08:55:59;97936.00;;;19.49;72.36
3260;BME280;22469;48.150;14.004;2022-09-09T08:58:34;97943.69;;;19.51;72.83
3260;BME280;22469;48.150;14.004;2022-09-09T09:09:31;97945.75;;;19.58;73.56
3260;BME280;22469;48.150;14.004;2022-09-09T09:12:21;97948.25;;;19.60;73.56
3260;BME280;22469;48.150;14.004;2022-09-09T09:14:50;97952.41;;;19.62;73.81
3260;BME280;22469;48.150;14.004;2022-09-09T09:17:21;97957.19;;;19.69;74.26
3260;BME280;22469;48.150;14.004;2022-09-09T09:19:51;97954.38;;;19.72;74.14
3260;BME280;22469;48.150;14.004;2022-09-09T09:22:47;97943.56;;;19.78;73.53
3260;BME280;22469;48.150;14.004;2022-09-09T09:25:26;97943.56;;;19.78;73.30
3260;BME280;22469;48.150;14.004;2022-09-09T09:28:07;97948.63;;;19.79;72.35
3260;BME280;22469;48.150;14.004;2022-09-09T09:31:03;97947.59;;;19.82;72.65
3260;BME280;22469;48.150;14.004;2022-09-09T09:33:53;97955.72;;;19.90;73.05
3260;BME280;22469;48.150;14.004;2022-09-09T09:36:41;97954.63;;;19.93;72.49
3260;BME280;22469;48.150;14.004;2022-09-09T09:39:33;97964.13;;;19.94;71.56
3260;BME280;22469;48.150;14.004;2022-09-09T09:42:26;97959.84;;;19.93;72.50
3260;BME280;22469;48.150;14.004;2022-09-09T09:44:53;97950.66;;;20.00;72.67
3260;BME280;22469;48.150;14.004;2022-09-09T09:47:22;97962.03;;;19.99;73.19
3260;BME280;22469;48.150;14.004;2022-09-09T09:52:28;97972.16;;;19.91;73.77
3260;BME280;22469;48.150;14.004;2022-09-09T09:54:57;97964.78;;;19.84;72.73
3260;BME280;22469;48.150;14.004;2022-09-09T09:57:33;97963.41;;;19.92;72.98
3260;BME280;22469;48.150;14.004;2022-09-09T10:00:13;97965.44;;;19.99;72.69
3260;BME280;22469;48.150;14.004;2022-09-09T10:02:45;97969.00;;;19.98;71.82
3260;BME280;22469;48.150;14.004;2022-09-09T10:08:10;97971.66;;;20.09;72.07
3260;BME280;22469;48.150;14.004;2022-09-09T10:30:08;97958.50;;;20.48;71.79
3260;BME280;22469;48.150;14.004;2022-09-09T10:32:46;97956.94;;;20.45;72.16
3260;BME280;22469;48.150;14.004;2022-09-09T10:36:11;97961.34;;;20.45;72.87
3260;BME280;22469;48.150;14.004;2022-09-09T10:39:04;97957.16;;;20.42;72.04
3260;BME280;22469;48.150;14.004;2022-09-09T10:47:35;97958.03;;;20.30;73.19
3260;BME280;22469;48.150;14.004;2022-09-09T10:56:34;97950.19;;;20.43;72.02
3260;BME280;22469;48.150;14.004;2022-09-09T10:59:07;97956.00;;;20.46;72.82
3260;BME280;22469;48.150;14.004;2022-09-09T11:01:40;97949.00;;;20.47;72.19
3260;BME280;22469;48.150;14.004;2022-09-09T11:04:22;97966.19;;;20.49;72.67
3260;BME280;22469;48.150;14.004;2022-09-09T11:06:55;97984.72;;;20.33;71.76
3260;BME280;22469;48.150;14.004;2022-09-09T11:09:33;97966.59;;;20.32;72.47
3260;BME280;22469;48.150;14.004;2022-09-09T11:12:13;97965.44;;;20.36;73.13
3260;BME280;22469;48.150;14.004;2022-09-09T11:14:50;97979.56;;;20.21;73.35
3260;BME280;22469;48.150;14.004;2022-09-09T11:17:26;97961.94;;;20.24;73.15
3260;BME280;22469;48.150;14.004;2022-09-09T11:20:00;97950.13;;;20.31;73.38
3260;BME280;22469;48.150;14.004;2022-09-09T11:22:37;97960.78;;;20.28;73.15
3260;BME280;22469;48.150;14.004;2022-09-09T11:25:31;97962.66;;;20.26;72.89
3260;BME280;22469;48.150;14.004;2022-09-09T11:28:27;97955.44;;;20.30;72.70
3260;BME280;22469;48.150;14.004;2022-09-09T11:34:03;97946.75;;;20.42;71.81
3260;BME280;22469;48.150;14.004;2022-09-09T11:40:08;97941.38;;;20.56;71.43
3260;BME280;22469;48.150;14.004;2022-09-09T11:42:41;97954.19;;;20.59;71.28
3260;BME280;22469;48.150;14.004;2022-09-09T11:45:28;97951.13;;;20.66;71.53
3260;BME280;22469;48.150;14.004;2022-09-09T11:48:00;97965.44;;;20.60;70.73
3260;BME280;22469;48.150;14.004;2022-09-09T11:50:38;97966.09;;;20.51;71.96
3260;BME280;22469;48.150;14.004;2022-09-09T11:55:40;97974.00;;;20.49;71.86
3260;BME280;22469;48.150;14.004;2022-09-09T12:00:47;97969.91;;;20.34;68.94
3260;BME280;22469;48.150;14.004;2022-09-09T12:06:31;97968.63;;;20.40;70.02
3260;BME280;22469;48.150;14.004;2022-09-09T12:12:17;97966.31;;;20.48;70.02
3260;BME280;22469;48.150;14.004;2022-09-09T12:14:59;97955.69;;;20.51;70.00
3260;BME280;22469;48.150;14.004;2022-09-09T12:17:47;97954.53;;;20.55;69.96
3260;BME280;22469;48.150;14.004;2022-09-09T12:20:39;97945.53;;;20.59;70.81
3260;BME280;22469;48.150;14.004;2022-09-09T12:23:51;97953.75;;;20.66;70.68
3260;BME280;22469;48.150;14.004;2022-09-09T12:32:01;97960.34;;;20.58;69.93
3260;BME280;22469;48.150;14.004;2022-09-09T12:34:47;97955.41;;;20.67;69.47
3260;BME280;22469;48.150;14.004;2022-09-09T12:37:35;97946.16;;;20.63;69.97
3260;BME280;22469;48.150;14.004;2022-09-09T12:42:47;97938.81;;;20.68;70.71
3260;BME280;22469;48.150;14.004;2022-09-09T12:45:31;97943.69;;;20.72;71.87
3260;BME280;22469;48.150;14.004;2022-09-09T12:48:09;97944.97;;;20.67;70.92
3260;BME280;22469;48.150;14.004;2022-09-09T12:50:50;97950.69;;;20.72;70.37
3260;BME280;22469;48.150;14.004;2022-09-09T12:53:29;97963.25;;;20.78;71.00
3260;BME280;22469;48.150;14.004;2022-09-09T12:56:04;97952.72;;;20.79;71.00
3260;BME280;22469;48.150;14.004;2022-09-09T12:58:37;97955.78;;;20.85;70.53
3260;BME280;22469;48.150;14.004;2022-09-09T13:01:06;97954.63;;;20.89;71.04
3260;BME280;22469;48.150;14.004;2022-09-09T13:03:41;97960.91;;;20.86;69.98
3260;BME280;22469;48.150;14.004;2022-09-09T13:06:33;97960.91;;;20.86;70.06
3260;BME280;22469;48.150;14.004;2022-09-09T13:09:01;97968.72;;;20.86;70.79
3260;BME280;22469;48.150;14.004;2022-09-09T13:11:41;97959.72;;;20.90;70.32
3260;BME280;22469;48.150;14.004;2022-09-09T13:14:19;97958.53;;;20.94;71.02
3260;BME280;22469;48.150;14.004;2022-09-09T13:16:58;97942.91;;;20.94;70.90
3260;BME280;22469;48.150;14.004;2022-09-09T13:19:29;97949.53;;;20.98;70.56
3260;BME280;22469;48.150;14.004;2022-09-09T13:22:11;97937.22;;;21.00;70.41
3260;BME280;22469;48.150;14.004;2022-09-09T13:24:40;97936.28;;;21.01;70.42
3260;BME280;22469;48.150;14.004;2022-09-09T13:29:56;97935.91;;;20.95;69.03
3260;BME280;22469;48.150;14.004;2022-09-09T13:32:25;97932.47;;;20.94;69.79
3260;BME280;22469;48.150;14.004;2022-09-09T13:34:56;97932.09;;;20.88;69.84
3260;BME280;22469;48.150;14.004;2022-09-09T13:37:38;97934.72;;;20.99;70.71
3260;BME280;22469;48.150;14.004;2022-09-09T13:40:18;97932.38;;;20.96;69.59
3260;BME280;22469;48.150;14.004;2022-09-09T13:42:52;97931.41;;;20.97;69.55
3260;BME280;22469;48.150;14.004;2022-09-09T13:45:24;97925.59;;;20.93;70.20
3260;BME280;22469;48.150;14.004;2022-09-09T13:47:55;97928.09;;;20.95;70.08
3260;BME280;22469;48.150;14.004;2022-09-09T13:50:42;97928.22;;;20.93;69.72
3260;BME280;22469;48.150;14.004;2022-09-09T13:53:24;97921.44;;;20.91;70.14
3260;BME280;22469;48.150;14.004;2022-09-09T13:55:51;97925.00;;;20.90;69.92
3260;BME280;22469;48.150;14.004;2022-09-09T13:58:19;97927.25;;;20.94;69.63
3260;BME280;22469;48.150;14.004;2022-09-09T14:00:49;97927.25;;;20.94;69.33
3260;BME280;22469;48.150;14.004;2022-09-09T14:03:16;97919.94;;;20.99;69.85
3260;BME280;22469;48.150;14.004;2022-09-09T14:05:44;97927.25;;;21.05;70.64
3260;BME280;22469;48.150;14.004;2022-09-09T14:08:23;97924.91;;;21.14;70.76
3260;BME280;22469;48.150;14.004;2022-09-09T14:10:51;97924.91;;;21.14;70.61
3260;BME280;22469;48.150;14.004;2022-09-09T14:13:19;97918.50;;;21.18;70.71
3260;BME280;22469;48.150;14.004;2022-09-09T14:15:48;97913.28;;;21.18;70.32
3260;BME280;22469;48.150;14.004;2022-09-09T14:18:15;97917.31;;;21.22;70.06
3260;BME280;22469;48.150;14.004;2022-09-09T14:20:43;97907.03;;;21.20;70.65
3260;BME280;22469;48.150;14.004;2022-09-09T14:23:11;97904.06;;;21.25;70.75
3260;BME280;22469;48.150;14.004;2022-09-09T14:25:44;97910.69;;;21.29;70.88
3260;BME280;22469;48.150;14.004;2022-09-09T14:28:13;97904.53;;;21.30;71.31
3260;BME280;22469;48.150;14.004;2022-09-09T14:30:41;97908.78;;;21.31;71.50
3260;BME280;22469;48.150;14.004;2022-09-09T14:33:13;97909.63;;;21.32;71.76
3260;BME280;22469;48.150;14.004;2022-09-09T14:35:42;97893.97;;;21.32;71.23
3260;BME280;22469;48.150;14.004;2022-09-09T14:38:10;97898.84;;;21.36;71.28
3260;BME280;22469;48.150;14.004;2022-09-09T14:40:45;97896.84;;;21.40;71.18
3260;BME280;22469;48.150;14.004;2022-09-09T14:43:13;97896.72;;;21.41;71.12
3260;BME280;22469;48.150;14.004;2022-09-09T14:45:40;97888.75;;;21.43;71.62
3260;BME280;22469;48.150;14.004;2022-09-09T14:48:07;97888.66;;;21.44;71.31
3260;BME280;22469;48.150;14.004;2022-09-09T14:50:34;97884.84;;;21.48;71.37
3260;BME280;22469;48.150;14.004;2022-09-09T14:53:07;97888.28;;;21.49;70.89
3260;BME280;22469;48.150;14.004;2022-09-09T14:55:36;97893.28;;;21.52;70.86
3260;BME280;22469;48.150;14.004;2022-09-09T14:58:04;97901.25;;;21.50;70.77
3260;BME280;22469;48.150;14.004;2022-09-09T15:00:32;97894.94;;;21.42;70.88
3260;BME280;22469;48.150;14.004;2022-09-09T15:02:59;97896.50;;;21.44;71.05
3260;BME280;22469;48.150;14.004;2022-09-09T15:05:26;97899.09;;;21.44;70.47
3260;BME280;22469;48.150;14.004;2022-09-09T15:07:54;97898.00;;;21.47;71.01
3260;BME280;22469;48.150;14.004;2022-09-09T15:10:21;97893.16;;;21.42;70.06
3260;BME280;22469;48.150;14.004;2022-09-09T15:12:48;97884.38;;;21.43;70.86
3260;BME280;22469;48.150;14.004;2022-09-09T15:15:15;97891.88;;;21.48;70.63
3260;BME280;22469;48.150;14.004;2022-09-09T15:17:42;97884.50;;;21.42;70.43
3260;BME280;22469;48.150;14.004;2022-09-09T15:20:09;97890.06;;;21.48;70.83
3260;BME280;22469;48.150;14.004;2022-09-09T15:22:37;97892.78;;;21.47;71.00
3260;BME280;22469;48.150;14.004;2022-09-09T15:25:04;97886.75;;;21.46;71.07
3260;BME280;22469;48.150;14.004;2022-09-09T15:27:32;97882.25;;;21.48;70.72
3260;BME280;22469;48.150;14.004;2022-09-09T15:30:00;97886.50;;;21.49;70.62
3260;BME280;22469;48.150;14.004;2022-09-09T15:32:27;97892.56;;;21.50;70.82
3260;BME280;22469;48.150;14.004;2022-09-09T15:34:55;97895.16;;;21.50;71.04
3260;BME280;22469;48.150;14.004;2022-09-09T15:37:21;97903.00;;;21.50;70.92
3260;BME280;22469;48.150;14.004;2022-09-09T15:39:48;97900.28;;;21.51;70.59
3260;BME280;22469;48.150;14.004;2022-09-09T15:42:16;97901.09;;;21.52;71.20